首页
METAR-TAF:

METAR-TAF

机场 :

阿什维尔, 北卡罗来纳州, 美国

纬度: 35-25-55N, 经度: 082-32-15W, 海拔: 660米

当前天气观测

该预报发布于1小时和4分钟前的04:54 UTC
风速4节,风向东北
温度 9°C
湿度 71%
气压 1017 hPa
能見度: 16.1公里
天空无云

METAR: KAVL 230454Z AUTO 04004KT 10SM CLR 09/04 A3004 RMK AO2 SLP160 T00940039 402060072 $

时间: 01:58 (05:58 UTC)

预报

该预报发布于26分钟前的05:32 UTC
预报有效从23日的 06点(UTC)到 24日的 06点(UTC)
风速7节,风向
能見度: 10公里
天空无云
从 23日的 1300点(UTC)
风速10节,风向,有时为18节阵风
能見度: 10公里
天空无云
从 23日的 1800点(UTC)
风速6节,风向北转西北
能見度: 10公里
天空无云
从 24日的 0100点(UTC)
风速3节,风向西北
能見度: 10公里
天空无云
从 24日的 0300点(UTC)
风速节,风向
能見度: 10公里
天空无云

TAF: KAVL 230532Z 2306/2406 36007KT P6SM SKC FM231300 35010G18KT P6SM SKC FM231800 34006KT P6SM SKC FM240100 32003KT P6SM SKC FM240300 00000KT P6SM SKC

超过4000个机场的气象观测和天气预报(METAR&TAF报告)。

可查询的气象台以黄色和红色小点在地图上表示。

将鼠标移到小点上方,可查看气象台名称。

然后点击查看天气观测和预报。

如需切换地图:点击带黑十字的绿色按钮放大地图;点击带横线的绿色按钮缩小地图;或者点击绿色箭头查看邻近地区的地图。


METAR-TAF: